createdAt,value
2022-11-19T00:01:11.144Z,4.95
2022-11-19T00:03:39.031Z,5.63
2022-11-19T00:06:08.681Z,3.50
2022-11-19T00:08:35.501Z,3.60
2022-11-19T00:11:10.871Z,3.90
2022-11-19T00:13:39.086Z,3.95
2022-11-19T00:16:08.514Z,3.70
2022-11-19T00:18:35.314Z,3.95
2022-11-19T00:21:04.085Z,3.85
2022-11-19T00:23:30.795Z,3.25
2022-11-19T00:25:57.406Z,4.80
2022-11-19T00:28:23.899Z,3.70
2022-11-19T00:30:50.395Z,3.80
2022-11-19T00:33:16.902Z,3.75
2022-11-19T00:35:43.382Z,4.97
2022-11-19T00:38:09.906Z,3.80
2022-11-19T00:40:36.412Z,3.63
2022-11-19T00:43:21.699Z,4.05
2022-11-19T00:45:49.053Z,3.58
2022-11-19T00:48:15.596Z,5.85
2022-11-19T00:50:42.609Z,4.15
2022-11-19T00:53:09.179Z,4.05
2022-11-19T00:55:37.478Z,4.38
2022-11-19T00:58:04.126Z,3.97
2022-11-19T01:00:30.619Z,3.53
2022-11-19T01:02:57.861Z,3.95
2022-11-19T01:05:24.404Z,3.65
2022-11-19T01:07:53.032Z,5.28
2022-11-19T01:10:19.644Z,6.53
2022-11-19T01:13:04.828Z,5.15
2022-11-19T01:15:31.342Z,3.45
2022-11-19T01:17:57.824Z,5.57
2022-11-19T01:20:24.463Z,4.93
2022-11-19T01:22:50.972Z,5.80
2022-11-19T01:25:17.699Z,3.78
2022-11-19T01:27:44.253Z,4.00
2022-11-19T01:30:11.492Z,4.55
2022-11-19T01:32:38.326Z,3.70
2022-11-19T01:35:05.276Z,5.97
2022-11-19T01:37:31.791Z,4.28
2022-11-19T01:39:58.347Z,6.95
2022-11-19T01:42:46.911Z,7.82
2022-11-19T01:45:31.488Z,7.25
2022-11-19T01:48:07.747Z,6.65
2022-11-19T01:50:37.896Z,5.97
2022-11-19T01:53:04.752Z,7.50
2022-11-19T01:55:31.575Z,6.88
2022-11-19T01:58:01.418Z,8.02
2022-11-19T02:00:28.317Z,6.57
2022-11-19T02:02:59.015Z,7.97
2022-11-19T02:05:26.875Z,6.93
2022-11-19T02:07:56.592Z,5.50
2022-11-19T02:10:31.094Z,7.68
2022-11-19T02:13:21.912Z,6.85
2022-11-19T02:16:08.816Z,6.45
2022-11-19T02:18:49.983Z,6.85
2022-11-19T02:21:42.245Z,11.55
2022-11-19T02:24:33.737Z,7.40
2022-11-19T02:27:34.264Z,8.48
2022-11-19T02:30:15.976Z,7.90
2022-11-19T02:32:53.911Z,9.00
2022-11-19T02:35:46.576Z,7.43
2022-11-19T02:38:21.569Z,9.27
2022-11-19T02:41:38.810Z,7.65
2022-11-19T02:44:33.009Z,7.43
2022-11-19T02:49:31.545Z,9.43
2022-11-19T02:51:59.576Z,8.93
2022-11-19T02:54:27.855Z,7.97
2022-11-19T02:56:58.766Z,7.55
2022-11-19T02:59:56.706Z,8.73
2022-11-19T03:02:46.243Z,8.52
2022-11-19T03:05:16.291Z,8.73
2022-11-19T03:07:43.061Z,10.25
2022-11-19T03:10:10.942Z,9.15
2022-11-19T03:12:50.075Z,10.23
2022-11-19T03:16:02.691Z,8.93
2022-11-19T03:18:50.096Z,10.80
2022-11-19T03:21:21.380Z,9.25
2022-11-19T03:23:53.153Z,11.02
2022-11-19T03:26:34.264Z,10.35
2022-11-19T03:29:05.982Z,10.75
2022-11-19T03:31:34.545Z,10.00
2022-11-19T03:34:07.668Z,10.43
2022-11-19T03:36:37.152Z,12.32
2022-11-19T03:39:08.959Z,11.63
2022-11-19T03:41:37.756Z,10.80
2022-11-19T03:44:16.265Z,9.88
2022-11-19T03:46:45.847Z,10.05
2022-11-19T03:49:14.557Z,10.45
2022-11-19T03:51:46.751Z,9.27
2022-11-19T03:54:14.380Z,11.50
2022-11-19T03:56:42.012Z,11.32
2022-11-19T03:59:11.308Z,10.52
2022-11-19T04:01:39.142Z,10.68
2022-11-19T04:04:24.454Z,9.27
2022-11-19T04:06:51.067Z,8.68
2022-11-19T04:09:17.907Z,11.90
2022-11-19T04:14:11.246Z,9.38
2022-11-19T04:16:38.034Z,9.32
2022-11-19T04:19:04.645Z,8.52
2022-11-19T04:21:31.323Z,9.88
2022-11-19T04:23:57.871Z,8.88
2022-11-19T04:26:24.392Z,12.40
2022-11-19T04:28:50.891Z,8.18
2022-11-19T04:31:18.204Z,8.55
2022-11-19T04:33:44.893Z,10.57
2022-11-19T04:36:11.338Z,13.13
2022-11-19T04:38:37.821Z,10.02
2022-11-19T04:41:04.379Z,11.57
2022-11-19T04:43:30.923Z,11.13
2022-11-19T04:45:57.475Z,9.90
2022-11-19T04:48:23.992Z,10.23
2022-11-19T04:50:50.501Z,10.02
2022-11-19T04:53:17.019Z,8.98
2022-11-19T04:55:43.572Z,9.77
2022-11-19T04:58:10.467Z,10.52
2022-11-19T05:00:36.983Z,12.07
2022-11-19T05:03:03.713Z,9.52
2022-11-19T05:05:30.288Z,9.10
2022-11-19T05:07:56.889Z,9.75
2022-11-19T05:10:23.416Z,11.50
2022-11-19T05:12:49.934Z,10.52
2022-11-19T05:15:16.577Z,11.90
2022-11-19T05:17:44.759Z,11.00
2022-11-19T05:20:11.665Z,9.68
2022-11-19T05:22:38.182Z,11.00
2022-11-19T05:25:05.090Z,12.98
2022-11-19T05:27:31.586Z,11.38
2022-11-19T05:29:58.132Z,10.27
2022-11-19T05:32:24.705Z,12.55
2022-11-19T05:34:51.223Z,9.70
2022-11-19T05:37:17.752Z,12.63
2022-11-19T05:39:44.242Z,10.35
2022-11-19T05:42:10.727Z,11.75
2022-11-19T05:44:37.243Z,11.93
2022-11-19T05:47:03.774Z,10.48
2022-11-19T05:49:30.291Z,11.30
2022-11-19T05:51:56.760Z,10.43
2022-11-19T05:54:23.364Z,12.77
2022-11-19T05:56:49.904Z,11.43
2022-11-19T05:59:16.579Z,8.80
2022-11-19T06:01:43.153Z,9.00
2022-11-19T06:04:10.928Z,11.02
2022-11-19T06:06:37.968Z,11.73
2022-11-19T06:09:04.503Z,12.40
2022-11-19T06:11:50.052Z,10.07
2022-11-19T06:14:22.682Z,9.57
2022-11-19T06:16:51.326Z,12.15
2022-11-19T06:19:19.342Z,11.38
2022-11-19T06:21:46.846Z,11.05
2022-11-19T06:24:13.506Z,10.98
2022-11-19T06:26:40.823Z,11.43
2022-11-19T06:29:07.968Z,12.40
2022-11-19T06:31:34.729Z,12.95
2022-11-19T06:34:01.278Z,10.77
2022-11-19T06:36:28.482Z,12.55
2022-11-19T06:38:57.897Z,12.98
2022-11-19T06:41:24.600Z,12.55
2022-11-19T06:43:51.136Z,14.40
2022-11-19T06:46:17.664Z,11.38
2022-11-19T06:48:44.184Z,11.80
2022-11-19T06:51:10.685Z,11.85
2022-11-19T06:53:37.354Z,13.45
2022-11-19T06:56:06.445Z,10.23
2022-11-19T06:58:33.593Z,13.15
2022-11-19T07:01:00.495Z,11.07
2022-11-19T07:03:27.290Z,12.20
2022-11-19T07:05:59.456Z,11.30
2022-11-19T07:08:26.030Z,13.43
2022-11-19T07:10:52.528Z,11.80
2022-11-19T07:13:19.075Z,11.38
2022-11-19T07:15:45.573Z,11.80
2022-11-19T07:18:12.159Z,11.55
2022-11-19T07:20:38.642Z,10.85
2022-11-19T07:23:09.575Z,11.52
2022-11-19T07:25:36.163Z,10.18
2022-11-19T07:28:02.793Z,9.57
2022-11-19T07:30:30.252Z,9.63
2022-11-19T07:32:56.799Z,10.25
2022-11-19T07:35:23.290Z,10.35
2022-11-19T07:37:49.859Z,10.23
2022-11-19T07:40:16.751Z,8.90
2022-11-19T07:42:49.217Z,10.15
2022-11-19T07:45:17.213Z,10.60
2022-11-19T07:47:43.846Z,9.15
2022-11-19T07:50:10.897Z,9.13
2022-11-19T07:52:37.369Z,8.98
2022-11-19T07:55:04.184Z,9.32
2022-11-19T07:57:30.807Z,8.23
2022-11-19T07:59:57.398Z,8.65
2022-11-19T08:02:24.032Z,9.07
2022-11-19T08:04:50.579Z,8.63
2022-11-19T08:07:17.240Z,10.02
2022-11-19T08:09:43.845Z,10.15
2022-11-19T08:12:10.433Z,7.53
2022-11-19T08:14:36.963Z,7.80
2022-11-19T08:17:21.994Z,10.18
2022-11-19T08:19:48.490Z,12.10
2022-11-19T08:22:14.992Z,10.10
2022-11-19T08:24:41.506Z,9.85
2022-11-19T08:27:07.996Z,9.13
2022-11-19T08:29:34.512Z,11.20
2022-11-19T08:32:01.015Z,7.88
2022-11-19T08:34:27.670Z,11.05
2022-11-19T08:36:54.155Z,9.32
2022-11-19T08:39:20.689Z,9.05
2022-11-19T08:42:05.650Z,10.43
2022-11-19T08:44:32.194Z,9.13
2022-11-19T08:46:58.727Z,9.43
2022-11-19T08:49:25.295Z,8.50
2022-11-19T08:51:52.329Z,10.18
2022-11-19T08:54:19.289Z,8.55
2022-11-19T08:56:46.094Z,11.88
2022-11-19T08:59:12.639Z,8.75
2022-11-19T09:01:39.326Z,9.63
2022-11-19T09:04:06.138Z,8.20
2022-11-19T09:06:35.827Z,10.80
2022-11-19T09:09:03.845Z,9.73
2022-11-19T09:11:30.736Z,7.57
2022-11-19T09:13:58.279Z,8.85
2022-11-19T09:16:25.416Z,7.68
2022-11-19T09:18:51.948Z,10.00
2022-11-19T09:21:18.470Z,8.63
2022-11-19T09:23:45.024Z,10.57
2022-11-19T09:26:14.305Z,9.45
2022-11-19T09:28:41.465Z,7.07
2022-11-19T09:31:11.068Z,8.43
2022-11-19T09:33:39.099Z,7.68
2022-11-19T09:36:05.888Z,10.30
2022-11-19T09:38:34.950Z,9.13
2022-11-19T09:41:40.671Z,9.55
2022-11-19T09:44:26.210Z,8.95
2022-11-19T09:47:28.145Z,7.57
2022-11-19T09:49:57.742Z,8.52
2022-11-19T09:52:28.387Z,10.00
2022-11-19T09:54:57.562Z,7.68
2022-11-19T09:57:43.412Z,10.00
2022-11-19T10:00:16.272Z,6.47
2022-11-19T10:02:44.059Z,7.82
2022-11-19T10:05:15.778Z,5.75
2022-11-19T10:07:45.463Z,6.20
2022-11-19T10:10:12.879Z,5.05
2022-11-19T10:12:55.730Z,5.70
2022-11-19T10:15:51.689Z,5.30
2022-11-19T10:18:18.169Z,6.32
2022-11-19T10:20:53.418Z,5.90
2022-11-19T10:23:33.856Z,6.25
2022-11-19T10:26:06.806Z,5.80
2022-11-19T10:28:38.450Z,6.07
2022-11-19T10:31:16.444Z,6.15
2022-11-19T10:33:51.732Z,6.53
2022-11-19T10:36:39.679Z,5.68
2022-11-19T10:39:18.658Z,5.97
2022-11-19T10:41:50.935Z,5.43
2022-11-19T10:45:05.188Z,5.97
2022-11-19T10:47:44.353Z,5.03
2022-11-19T10:50:21.791Z,4.72
2022-11-19T10:53:14.411Z,5.63
2022-11-19T10:55:54.478Z,5.20
2022-11-19T10:58:29.099Z,6.40
2022-11-19T11:01:00.681Z,7.45
2022-11-19T11:03:32.397Z,6.97
2022-11-19T11:06:06.253Z,5.95
2022-11-19T11:08:33.754Z,6.05
2022-11-19T11:11:01.185Z,6.05
2022-11-19T11:13:46.383Z,6.38
2022-11-19T11:16:18.827Z,7.63
2022-11-19T11:18:47.338Z,8.50
2022-11-19T11:21:29.187Z,7.95
2022-11-19T11:23:56.567Z,8.45
2022-11-19T11:26:34.079Z,8.68
2022-11-19T11:29:14.236Z,9.15
2022-11-19T11:31:47.673Z,10.68
2022-11-19T11:34:26.081Z,7.80
2022-11-19T11:36:53.790Z,7.72
2022-11-19T11:39:27.971Z,6.03
2022-11-19T11:42:16.080Z,7.05
2022-11-19T11:44:53.624Z,6.93
2022-11-19T11:47:28.259Z,5.03
2022-11-19T11:50:03.158Z,5.43
2022-11-19T11:52:34.095Z,5.35
2022-11-19T11:55:04.814Z,3.75
2022-11-19T11:57:33.768Z,4.35
2022-11-19T12:00:01.765Z,4.45
2022-11-19T12:02:34.321Z,5.97
2022-11-19T12:05:06.992Z,5.22
2022-11-19T12:07:50.371Z,5.68
2022-11-19T12:10:42.788Z,7.10
2022-11-19T12:13:34.416Z,8.10
2022-11-19T12:16:11.112Z,4.80
2022-11-19T12:18:42.688Z,6.00
2022-11-19T12:21:12.342Z,5.22
2022-11-19T12:24:18.525Z,5.80
2022-11-19T12:27:03.292Z,6.68
2022-11-19T12:29:51.655Z,7.03
2022-11-19T12:32:55.822Z,4.85
2022-11-19T12:35:45.664Z,4.88
2022-11-19T12:38:27.860Z,4.00
2022-11-19T12:40:54.328Z,5.78
2022-11-19T12:43:48.454Z,5.78
2022-11-19T12:46:21.051Z,3.33
2022-11-19T12:49:02.859Z,3.83
2022-11-19T12:51:52.113Z,4.53
2022-11-19T12:54:31.732Z,4.75
2022-11-19T12:57:35.021Z,5.85
2022-11-19T13:00:27.075Z,4.90
2022-11-19T13:03:12.599Z,7.13
2022-11-19T13:05:51.459Z,4.80
2022-11-19T13:08:27.842Z,4.45
2022-11-19T13:11:15.546Z,4.95
2022-11-19T13:13:47.116Z,4.07
2022-11-19T13:16:20.085Z,3.90
2022-11-19T13:18:51.159Z,5.47
2022-11-19T13:21:23.670Z,4.10
2022-11-19T13:23:52.474Z,9.95
2022-11-19T13:26:31.925Z,4.85
2022-11-19T13:29:23.458Z,4.70
2022-11-19T13:31:56.673Z,3.67
2022-11-19T13:34:29.327Z,3.35
2022-11-19T13:37:02.311Z,3.50
2022-11-19T13:39:45.271Z,5.05
2022-11-19T13:42:34.410Z,4.50
2022-11-19T13:45:01.054Z,4.13
2022-11-19T13:48:00.846Z,4.93
2022-11-19T13:50:34.304Z,4.63
2022-11-19T13:53:03.736Z,4.50
2022-11-19T13:55:40.253Z,4.40
2022-11-19T13:58:17.813Z,6.28
2022-11-19T14:01:15.534Z,7.43
2022-11-19T14:04:03.419Z,5.60
2022-11-19T14:06:42.060Z,4.75
2022-11-19T14:09:36.522Z,5.18
2022-11-19T14:12:42.424Z,6.25
2022-11-19T14:15:52.628Z,3.67
2022-11-19T14:18:58.421Z,4.57
2022-11-19T14:21:43.313Z,4.45
2022-11-19T14:24:48.493Z,4.20
2022-11-19T14:27:31.724Z,4.38
2022-11-19T14:30:30.254Z,4.68
2022-11-19T14:32:56.794Z,4.30
2022-11-19T14:35:31.166Z,4.43
2022-11-19T14:38:35.310Z,4.50
2022-11-19T14:41:15.567Z,5.15
2022-11-19T14:44:09.740Z,3.35
2022-11-19T14:46:41.824Z,5.43
2022-11-19T14:49:29.348Z,3.33
2022-11-19T14:51:57.345Z,4.40
2022-11-19T14:54:32.627Z,4.28
2022-11-19T14:57:03.683Z,3.88
2022-11-19T14:59:34.674Z,4.90
2022-11-19T15:02:11.281Z,4.15
2022-11-19T15:04:57.769Z,4.45
2022-11-19T15:07:34.992Z,3.75
2022-11-19T15:10:10.629Z,6.05
2022-11-19T15:12:43.016Z,5.20
2022-11-19T15:15:24.774Z,5.72
2022-11-19T15:18:01.958Z,6.05
2022-11-19T15:20:43.876Z,13.15
2022-11-19T15:23:27.245Z,10.98
2022-11-19T15:26:29.187Z,9.30
2022-11-19T15:29:14.285Z,7.30
2022-11-19T15:32:05.572Z,7.25
2022-11-19T15:34:48.730Z,4.90
2022-11-19T15:37:27.447Z,6.30
2022-11-19T15:39:56.329Z,7.85
2022-11-19T15:42:39.044Z,6.53
2022-11-19T15:45:15.630Z,5.82
2022-11-19T15:47:53.498Z,9.00
2022-11-19T15:50:22.905Z,7.68
2022-11-19T15:53:14.295Z,5.18
2022-11-19T15:55:48.018Z,4.75
2022-11-19T16:00:49.792Z,5.43
2022-11-19T16:03:17.674Z,16.43
2022-11-19T16:06:00.779Z,8.27
2022-11-19T16:08:27.601Z,9.57
2022-11-19T16:11:19.929Z,12.02
2022-11-19T16:14:09.946Z,12.95
2022-11-19T16:16:55.252Z,15.93
2022-11-19T16:19:22.429Z,9.00
2022-11-19T16:22:02.078Z,7.35
2022-11-19T16:24:48.257Z,7.57
2022-11-19T16:27:23.630Z,6.20
2022-11-19T16:29:50.960Z,6.75
2022-11-19T16:32:23.372Z,6.00
2022-11-19T16:34:49.937Z,5.75
2022-11-19T16:37:21.610Z,7.78
2022-11-19T16:39:52.995Z,6.15
2022-11-19T16:42:26.452Z,5.88
2022-11-19T16:45:04.739Z,5.38
2022-11-19T16:47:35.622Z,4.90
2022-11-19T16:50:06.706Z,5.32
2022-11-19T16:52:33.176Z,5.47
2022-11-19T16:55:03.993Z,6.22
2022-11-19T16:57:31.187Z,6.28
2022-11-19T17:00:00.735Z,7.63
2022-11-19T17:02:36.263Z,5.18
2022-11-19T17:05:13.141Z,6.78
2022-11-19T17:07:47.775Z,7.38
2022-11-19T17:10:24.508Z,6.85
2022-11-19T17:12:59.788Z,6.00
2022-11-19T17:15:41.052Z,5.55
2022-11-19T17:18:14.942Z,7.32
2022-11-19T17:20:44.535Z,7.05
2022-11-19T17:23:23.766Z,6.82
2022-11-19T17:25:55.275Z,7.35
2022-11-19T17:28:30.124Z,8.52
2022-11-19T17:30:57.138Z,5.68
2022-11-19T17:33:24.390Z,7.82
2022-11-19T17:35:51.804Z,6.13
2022-11-19T17:38:24.055Z,7.38
2022-11-19T17:40:56.497Z,9.25
2022-11-19T17:43:44.426Z,17.83
2022-11-19T17:46:11.184Z,7.85
2022-11-19T17:48:41.365Z,6.25
2022-11-19T17:51:17.056Z,6.38
2022-11-19T17:53:43.944Z,6.50
2022-11-19T17:56:23.297Z,6.55
2022-11-19T17:58:49.833Z,7.90
2022-11-19T18:01:16.442Z,5.82
2022-11-19T18:03:43.336Z,7.05
2022-11-19T18:06:15.182Z,6.57
2022-11-19T18:08:42.285Z,7.07
2022-11-19T18:11:19.878Z,6.53
2022-11-19T18:13:48.613Z,6.43
2022-11-19T18:16:17.673Z,6.43
2022-11-19T18:18:44.332Z,5.72
2022-11-19T18:21:13.602Z,5.35
2022-11-19T18:23:41.266Z,7.43
2022-11-19T18:26:11.769Z,5.20
2022-11-19T18:28:39.077Z,4.47
2022-11-19T18:31:06.968Z,6.13
2022-11-19T18:33:35.392Z,4.28
2022-11-19T18:36:01.886Z,4.72
2022-11-19T18:38:30.703Z,5.63
2022-11-19T18:40:57.360Z,4.72
2022-11-19T18:43:42.622Z,5.00
2022-11-19T18:46:09.792Z,5.38
2022-11-19T18:48:36.474Z,5.53
2022-11-19T18:51:03.135Z,5.13
2022-11-19T18:53:29.724Z,6.50
2022-11-19T18:55:56.263Z,5.63
2022-11-19T18:58:22.782Z,5.93
2022-11-19T19:00:51.767Z,6.90
2022-11-19T19:03:18.288Z,5.80
2022-11-19T19:05:44.856Z,6.10
2022-11-19T19:08:11.374Z,5.45
2022-11-19T19:10:37.905Z,5.50
2022-11-19T19:13:04.491Z,6.75
2022-11-19T19:15:31.020Z,5.47
2022-11-19T19:17:57.565Z,4.80
2022-11-19T19:20:24.156Z,5.20
2022-11-19T19:22:50.651Z,5.07
2022-11-19T19:25:17.369Z,7.07
2022-11-19T19:27:43.865Z,5.50
2022-11-19T19:30:10.700Z,5.50
2022-11-19T19:32:37.385Z,5.93
2022-11-19T19:35:04.192Z,5.57
2022-11-19T19:37:30.731Z,6.15
2022-11-19T19:39:57.215Z,5.68
2022-11-19T19:42:23.789Z,5.15
2022-11-19T19:44:50.275Z,5.57
2022-11-19T19:47:17.019Z,5.70
2022-11-19T19:49:43.670Z,6.07
2022-11-19T19:52:10.258Z,5.95
2022-11-19T19:54:36.740Z,5.80
2022-11-19T19:57:03.499Z,5.95
2022-11-19T19:59:30.005Z,7.70
2022-11-19T20:01:56.656Z,5.30
2022-11-19T20:04:23.252Z,5.28
2022-11-19T20:06:51.677Z,6.15
2022-11-19T20:09:18.334Z,7.15
2022-11-19T20:11:44.880Z,6.45
2022-11-19T20:14:11.537Z,6.65
2022-11-19T20:16:40.275Z,12.95
2022-11-19T20:19:08.781Z,10.10
2022-11-19T20:21:36.460Z,9.38
2022-11-19T20:24:08.723Z,17.08
2022-11-19T20:26:39.074Z,9.57
2022-11-19T20:29:06.623Z,12.68
2022-11-19T20:31:34.009Z,17.70
2022-11-19T20:34:02.898Z,10.40
2022-11-19T20:36:32.067Z,9.75
2022-11-19T20:38:59.001Z,9.07
2022-11-19T20:41:45.907Z,11.05
2022-11-19T20:44:25.899Z,7.93
2022-11-19T20:46:55.351Z,7.32
2022-11-19T20:49:24.874Z,8.13
2022-11-19T20:51:52.671Z,5.80
2022-11-19T20:54:20.195Z,6.60
2022-11-19T20:56:47.679Z,6.28
2022-11-19T20:59:14.316Z,7.32
2022-11-19T21:01:41.473Z,6.70
2022-11-19T21:04:08.692Z,7.65
2022-11-19T21:06:35.227Z,7.63
2022-11-19T21:09:02.037Z,8.52
2022-11-19T21:11:28.507Z,9.75
2022-11-19T21:13:55.043Z,8.98
2022-11-19T21:16:23.690Z,7.57
2022-11-19T21:18:50.774Z,7.53
2022-11-19T21:21:19.361Z,7.13
2022-11-19T21:23:46.272Z,7.68
2022-11-19T21:26:19.882Z,6.38
2022-11-19T21:28:49.167Z,7.03
2022-11-19T21:31:17.078Z,6.63
2022-11-19T21:33:43.799Z,6.38
2022-11-19T21:36:10.555Z,6.85
2022-11-19T21:38:37.081Z,6.68
2022-11-19T21:41:04.136Z,9.10
2022-11-19T21:43:30.688Z,11.00
2022-11-19T21:45:57.560Z,8.70
2022-11-19T21:48:25.260Z,7.93
2022-11-19T21:50:52.892Z,7.05
2022-11-19T21:53:19.953Z,9.98
2022-11-19T21:55:47.573Z,8.18
2022-11-19T21:58:15.279Z,7.15
2022-11-19T22:00:42.628Z,9.10
2022-11-19T22:03:09.306Z,10.88
2022-11-19T22:05:35.867Z,10.02
2022-11-19T22:08:02.536Z,10.40
2022-11-19T22:10:29.906Z,8.73
2022-11-19T22:12:58.269Z,9.40
2022-11-19T22:15:25.967Z,9.80
2022-11-19T22:17:52.577Z,8.25
2022-11-19T22:20:19.250Z,9.65
2022-11-19T22:22:46.527Z,10.10
2022-11-19T22:25:13.337Z,10.27
2022-11-19T22:27:41.604Z,10.13
2022-11-19T22:30:10.099Z,11.43
2022-11-19T22:32:37.016Z,12.07
2022-11-19T22:35:04.765Z,10.85
2022-11-19T22:37:31.386Z,11.35
2022-11-19T22:39:57.905Z,11.48
2022-11-19T22:42:24.708Z,12.32
2022-11-19T22:44:51.797Z,13.38
2022-11-19T22:47:18.395Z,15.00
2022-11-19T22:49:44.954Z,12.95
2022-11-19T22:52:11.515Z,12.80
2022-11-19T22:54:41.603Z,11.18
2022-11-19T22:57:08.955Z,12.52
2022-11-19T22:59:35.847Z,12.10
2022-11-19T23:02:02.408Z,12.63
2022-11-19T23:04:29.300Z,11.30
2022-11-19T23:06:56.138Z,13.38
2022-11-19T23:09:23.244Z,14.18
2022-11-19T23:12:08.434Z,12.93
2022-11-19T23:14:35.184Z,10.63
2022-11-19T23:17:01.682Z,12.65
2022-11-19T23:19:28.198Z,10.65
2022-11-19T23:21:54.754Z,10.32
2022-11-19T23:24:21.313Z,11.00
2022-11-19T23:26:47.841Z,11.10
2022-11-19T23:29:14.399Z,11.60
2022-11-19T23:31:41.019Z,11.25
2022-11-19T23:34:07.675Z,10.48
2022-11-19T23:36:37.321Z,11.10
2022-11-19T23:39:05.366Z,9.38
2022-11-19T23:41:33.897Z,9.02
2022-11-19T23:44:01.146Z,10.55
2022-11-19T23:46:30.657Z,9.57
2022-11-19T23:48:58.025Z,9.57
2022-11-19T23:51:42.392Z,8.65
2022-11-19T23:54:12.466Z,9.73
2022-11-19T23:56:39.068Z,9.05
2022-11-19T23:59:06.194Z,9.48
